Time;durP1;ratioP1;P1;durP2;ratioP2;P2;SDS_P1;SDS_P2;PMS_P1;PMS_P2;Temp;Humidity;BMP_temperature;BMP_pressure;BME280_temperature;BME280_humidity;BME280_pressure;Samples;Min_cycle;Max_cycle;Signal;HPM_P1;HPM_P2
2021/01/30 00:00:41;;;;;;;233.45;120.47;;;;;;;2.60;63.21;92394.14;1807808;78;21065;-57
2021/01/30 00:03:11;;;;;;;239.57;118.97;;;;;;;2.55;63.07;92392.04;1807802;79;21128;-56
2021/01/30 00:05:41;;;;;;;234.45;113.08;;;;;;;2.45;63.16;92387.22;1807755;79;21069;-56
2021/01/30 00:08:12;;;;;;;286.87;132.67;;;;;;;2.28;63.37;92377.88;1807798;78;21070;-56
2021/01/30 00:10:40;;;;;;;303.20;139.10;;;;;;;2.21;63.86;92380.13;1807884;79;21485;-56
2021/01/30 00:13:09;;;;;;;281.35;136.30;;;;;;;2.24;63.88;92384.65;1807894;79;21533;-55
2021/01/30 00:15:40;;;;;;;279.30;137.05;;;;;;;2.33;63.99;92386.02;1807780;78;21188;-56
2021/01/30 00:18:09;;;;;;;276.15;135.95;;;;;;;2.42;63.73;92377.88;1807745;78;21132;-56
2021/01/30 00:20:38;;;;;;;261.30;128.23;;;;;;;2.51;63.74;92381.95;1807751;79;21113;-56
2021/01/30 00:23:07;;;;;;;259.95;126.58;;;;;;;2.57;63.52;92377.41;1807776;79;21145;-56
2021/01/30 00:25:36;;;;;;;259.02;125.05;;;;;;;2.55;63.64;92374.41;1807800;79;21101;-56
2021/01/30 00:28:06;;;;;;;258.17;128.72;;;;;;;2.53;63.48;92361.28;1778987;79;21232;-56
2021/01/30 00:30:34;;;;;;;315.07;180.97;;;;;;;2.49;63.57;92366.73;1807724;78;21216;-56
2021/01/30 00:33:04;;;;;;;257.92;131.43;;;;;;;2.50;63.55;92360.84;1807806;78;21073;-56
2021/01/30 00:35:33;;;;;;;233.15;120.13;;;;;;;2.44;63.62;92357.83;1807747;79;21453;-56
2021/01/30 00:38:03;;;;;;;234.90;117.35;;;;;;;2.42;63.82;92352.87;1807853;78;21465;-57
2021/01/30 00:40:31;;;;;;;240.28;123.58;;;;;;;2.38;63.95;92355.58;1807714;79;21189;-56
2021/01/30 00:43:01;;;;;;;227.72;116.45;;;;;;;2.27;63.92;92353.91;1807738;78;21066;-56
2021/01/30 00:45:30;;;;;;;221.68;115.60;;;;;;;2.25;64.21;92363.11;1807874;79;21069;-56
2021/01/30 00:47:58;;;;;;;203.85;107.60;;;;;;;2.30;64.26;92353.03;1778689;79;21125;-55
2021/01/30 00:50:28;;;;;;;177.07;91.10;;;;;;;2.37;64.18;92348.05;1807817;79;21105;-55
2021/01/30 00:52:57;;;;;;;216.23;107.00;;;;;;;2.38;63.90;92340.66;1778619;79;21401;-56
2021/01/30 00:55:27;;;;;;;198.47;104.90;;;;;;;2.34;64.04;92343.52;1806273;79;21144;-55
2021/01/30 00:57:58;;;;;;;200.15;104.80;;;;;;;2.37;64.14;92341.27;1807962;78;21116;-55
2021/01/30 01:00:28;;;;;;;187.20;96.45;;;;;;;2.41;64.32;92345.94;1807955;79;21149;-56
2021/01/30 01:02:58;;;;;;;280.98;137.12;;;;;;;2.58;64.07;92332.80;1808049;79;21544;-56
2021/01/30 01:05:29;;;;;;;238.03;122.35;;;;;;;2.69;63.73;92332.47;1807349;79;21359;-56
2021/01/30 01:07:58;;;;;;;213.05;109.50;;;;;;;2.84;63.48;92329.89;1807909;79;21100;-56
2021/01/30 01:10:27;;;;;;;201.52;108.63;;;;;;;2.96;62.88;92327.58;1807966;79;21129;-57
2021/01/30 01:12:56;;;;;;;193.37;103.07;;;;;;;3.01;62.62;92322.88;1807975;78;21126;-56
2021/01/30 01:15:25;;;;;;;187.07;95.07;;;;;;;3.03;62.67;92323.94;1807984;78;21173;-55
2021/01/30 01:17:54;;;;;;;193.97;97.62;;;;;;;3.13;62.48;92317.86;1808061;78;22323;-55
2021/01/30 01:20:22;;;;;;;192.60;100.62;;;;;;;3.18;62.29;92313.92;1807961;79;21613;-55
2021/01/30 01:22:51;;;;;;;204.18;101.18;;;;;;;3.18;62.27;92295.50;1807919;79;21045;-56
2021/01/30 01:25:21;;;;;;;196.25;94.85;;;;;;;3.19;62.25;92294.30;1807921;78;21046;-57
2021/01/30 01:27:49;;;;;;;176.30;84.13;;;;;;;3.18;62.15;92288.71;1808048;78;21558;-55
2021/01/30 01:30:22;;;;;;;138.75;69.72;;;;;;;3.13;62.02;92294.19;1807876;78;21202;-55
2021/01/30 01:32:51;;;;;;;131.55;65.97;;;;;;;3.07;62.17;92285.77;1807978;78;21064;-55
2021/01/30 01:35:24;;;;;;;176.18;78.20;;;;;;;3.01;62.30;92294.36;1809374;78;21037;-55
2021/01/30 01:37:52;;;;;;;154.18;81.37;;;;;;;3.03;62.10;92291.97;1813953;77;21049;-56
2021/01/30 01:40:36;;;;;;;148.90;72.90;;;;;;;2.99;62.17;92281.86;1813646;78;21085;-56
2021/01/30 01:43:14;;;;;;;117.25;59.75;;;;;;;2.95;62.39;92274.48;1813681;79;22264;-56
2021/01/30 01:45:45;;;;;;;111.90;59.55;;;;;;;2.91;62.54;92282.78;1813585;78;21065;-56
2021/01/30 01:48:19;;;;;;;113.95;58.58;;;;;;;2.90;62.57;92276.48;1787332;79;21052;-56
2021/01/30 01:50:48;;;;;;;112.77;60.20;;;;;;;2.94;62.74;92275.70;1813710;78;21544;-56
2021/01/30 01:53:26;;;;;;;109.50;57.17;;;;;;;3.03;62.41;92285.92;1813611;79;21129;-56
2021/01/30 01:55:58;;;;;;;82.57;43.48;;;;;;;3.01;62.40;92272.05;1787418;79;21342;-55
2021/01/30 01:58:27;;;;;;;104.05;54.10;;;;;;;2.98;62.49;92291.21;1813696;78;21117;-55
2021/01/30 02:00:55;;;;;;;92.53;49.55;;;;;;;2.85;62.56;92279.20;1813692;79;21605;-56
2021/01/30 02:03:23;;;;;;;107.12;59.27;;;;;;;2.73;62.99;92271.98;1813781;79;21085;-56
2021/01/30 02:05:52;;;;;;;152.32;78.75;;;;;;;2.69;63.25;92275.48;1813545;78;21663;-56
2021/01/30 02:08:23;;;;;;;144.50;77.90;;;;;;;2.63;63.30;92257.55;1813615;79;21359;-57
2021/01/30 02:10:52;;;;;;;129.15;68.35;;;;;;;2.51;63.78;92253.08;1813697;78;21489;-56
2021/01/30 02:13:30;;;;;;;123.50;62.55;;;;;;;2.56;63.90;92254.58;1813619;79;21077;-55
2021/01/30 02:16:36;;;;;;;123.05;61.53;;;;;;;2.64;63.88;92254.98;1813600;79;21125;-56
2021/01/30 02:19:32;;;;;;;107.15;58.13;;;;;;;2.70;63.73;92264.03;1813589;78;21192;-57
2021/01/30 02:22:24;;;;;;;88.65;44.93;;;;;;;2.77;63.71;92242.75;1772335;79;21084;-56
2021/01/30 02:25:31;;;;;;;102.27;52.83;;;;;;;2.81;63.52;92262.92;1813390;78;21544;-55
2021/01/30 02:28:34;;;;;;;92.10;50.70;;;;;;;2.79;63.45;92259.33;1813675;79;21466;-56
2021/01/30 02:31:24;;;;;;;105.85;58.15;;;;;;;2.76;63.91;92255.41;1813589;79;21113;-57
2021/01/30 02:34:21;;;;;;;119.10;59.80;;;;;;;2.85;63.59;92258.10;1813684;79;21101;-56
2021/01/30 02:37:08;;;;;;;108.80;59.30;;;;;;;2.88;63.76;92253.11;1813428;77;21263;-56
2021/01/30 02:39:44;;;;;;;104.17;55.92;;;;;;;2.97;63.60;92259.84;1813496;78;21160;-55
2021/01/30 02:42:20;;;;;;;97.47;53.20;;;;;;;3.06;63.33;92261.18;1813578;79;21072;-56
2021/01/30 02:45:02;;;;;;;103.45;55.65;;;;;;;3.05;63.43;92269.91;1799876;79;21140;-56
2021/01/30 02:47:34;;;;;;;90.07;47.20;;;;;;;3.11;63.52;92271.41;1813546;78;21081;-56
2021/01/30 02:50:07;;;;;;;100.47;54.40;;;;;;;3.19;63.07;92267.13;1813740;79;21376;-56
2021/01/30 02:52:35;;;;;;;98.75;54.10;;;;;;;3.12;62.97;92272.91;1781456;79;28049;-55
2021/01/30 02:55:06;;;;;;;100.92;55.43;;;;;;;3.12;63.02;92270.20;1813612;78;21081;-56
2021/01/30 02:57:35;;;;;;;98.75;55.90;;;;;;;3.10;63.20;92264.47;1813581;79;21062;-59
2021/01/30 03:00:07;;;;;;;107.67;60.52;;;;;;;3.15;63.34;92272.75;1749295;79;21080;-56
2021/01/30 03:02:35;;;;;;;102.82;55.95;;;;;;;3.24;63.19;92282.20;1813591;79;21576;-56
2021/01/30 03:05:07;;;;;;;119.62;65.32;;;;;;;3.32;62.97;92267.67;1813496;78;21085;-55
2021/01/30 03:07:51;;;;;;;80.00;45.48;;;;;;;3.29;63.17;92269.96;1813592;79;21168;-56
2021/01/30 03:10:27;;;;;;;77.92;44.95;;;;;;;3.23;63.03;92282.05;1813647;78;21037;-56
2021/01/30 03:13:23;;;;;;;88.17;48.28;;;;;;;3.12;63.53;92278.34;1813599;79;21104;-56
2021/01/30 03:16:05;;;;;;;69.03;37.73;;;;;;;3.11;63.80;92276.84;1813463;79;21376;-55
2021/01/30 03:18:36;;;;;;;69.85;40.88;;;;;;;3.05;64.14;92282.76;1789245;79;21509;-56
2021/01/30 03:21:06;;;;;;;72.05;41.88;;;;;;;2.94;64.48;92289.27;1813652;79;21081;-56
2021/01/30 03:23:35;;;;;;;64.62;35.68;;;;;;;2.84;64.87;92289.17;1813543;79;21073;-56
2021/01/30 03:26:06;;;;;;;66.35;37.55;;;;;;;2.69;65.30;92283.62;1813550;79;21074;-56
2021/01/30 03:28:34;;;;;;;90.22;48.60;;;;;;;2.57;65.86;92287.87;1813554;79;21198;-55
2021/01/30 03:31:03;;;;;;;123.45;67.75;;;;;;;2.53;66.63;92281.25;1813522;78;21500;-56
2021/01/30 03:33:32;;;;;;;106.15;61.77;;;;;;;2.62;66.71;92260.12;1813591;79;21104;-56
2021/01/30 03:36:01;;;;;;;126.35;66.28;;;;;;;2.67;67.18;92269.02;1809669;77;21512;-55
2021/01/30 03:38:29;;;;;;;105.03;55.00;;;;;;;2.79;67.25;92266.11;1799897;79;21116;-56
2021/01/30 03:40:58;;;;;;;100.60;54.77;;;;;;;2.88;66.96;92249.77;1799875;79;21200;-56
2021/01/30 03:43:26;;;;;;;76.65;41.25;;;;;;;2.83;66.86;92246.95;1799930;79;21585;-56
2021/01/30 03:45:56;;;;;;;74.55;44.63;;;;;;;2.75;67.31;92245.17;1799873;79;21172;-56
2021/01/30 03:48:25;;;;;;;74.15;42.25;;;;;;;2.69;67.52;92242.17;1800023;79;21168;-55
2021/01/30 03:50:53;;;;;;;56.65;36.23;;;;;;;2.67;67.87;92246.69;1800051;79;21445;-56
2021/01/30 03:53:23;;;;;;;67.92;41.88;;;;;;;2.69;68.17;92253.03;1799971;78;22141;-57
2021/01/30 03:55:52;;;;;;;70.60;42.58;;;;;;;2.81;68.11;92250.12;1799818;79;21072;-55
2021/01/30 03:58:20;;;;;;;76.12;43.83;;;;;;;2.85;67.71;92262.17;1799864;79;21465;-55
2021/01/30 04:00:49;;;;;;;81.35;47.53;;;;;;;2.78;67.82;92251.03;1799887;79;21160;-56
2021/01/30 04:03:24;;;;;;;86.02;48.15;;;;;;;2.75;68.30;92251.19;1799900;79;21116;-56
2021/01/30 04:05:52;;;;;;;74.05;42.50;;;;;;;2.76;68.31;92243.96;1799949;79;21488;-56
2021/01/30 04:08:21;;;;;;;91.75;51.45;;;;;;;2.74;68.33;92246.38;1799953;79;21496;-56
2021/01/30 04:10:49;;;;;;;85.85;47.53;;;;;;;2.69;68.67;92239.46;1799882;78;21089;-56
2021/01/30 04:13:18;;;;;;;70.55;44.53;;;;;;;2.76;68.66;92246.67;1799856;78;21080;-56
2021/01/30 04:15:47;;;;;;;72.10;41.08;;;;;;;2.81;68.82;92247.99;1799833;79;21108;-56
2021/01/30 04:18:15;;;;;;;76.37;42.90;;;;;;;2.92;68.60;92251.74;1799846;79;21364;-55
2021/01/30 04:20:44;;;;;;;79.15;46.37;;;;;;;2.90;68.46;92258.20;1799821;78;21076;-55
2021/01/30 04:23:12;;;;;;;92.10;50.70;;;;;;;2.91;68.60;92269.84;1799937;79;21497;-55
2021/01/30 04:25:41;;;;;;;88.27;52.03;;;;;;;2.88;68.45;92253.11;1799839;78;21141;-57
2021/01/30 04:28:09;;;;;;;93.95;56.35;;;;;;;2.79;68.71;92257.97;1799936;78;21080;-55
2021/01/30 04:30:38;;;;;;;94.60;53.33;;;;;;;2.79;69.09;92270.18;1799881;78;22163;-55
2021/01/30 04:33:08;;;;;;;122.33;75.40;;;;;;;2.85;69.02;92249.95;1799842;79;21135;-55
2021/01/30 04:35:37;;;;;;;119.62;70.45;;;;;;;2.89;69.11;92260.05;1799791;78;21107;-56
2021/01/30 04:38:06;;;;;;;116.95;67.12;;;;;;;2.95;69.06;92254.12;1807697;78;21152;-56
2021/01/30 04:40:43;;;;;;;117.85;67.40;;;;;;;3.00;68.90;92247.47;1807779;79;21061;-56
2021/01/30 04:43:38;;;;;;;125.82;72.15;;;;;;;3.01;68.60;92248.97;1807820;79;21138;-55
2021/01/30 04:46:24;;;;;;;105.85;60.28;;;;;;;2.91;68.63;92253.55;1807443;79;21141;-57
2021/01/30 04:49:04;;;;;;;119.00;69.12;;;;;;;2.84;68.86;92262.03;1807858;78;21089;-55
2021/01/30 04:52:00;;;;;;;118.82;68.25;;;;;;;2.80;69.06;92254.63;1807812;79;21069;-55
2021/01/30 04:54:46;;;;;;;95.95;54.53;;;;;;;2.65;69.11;92261.95;1807768;79;21581;-56
2021/01/30 04:57:25;;;;;;;79.00;47.80;;;;;;;2.53;69.47;92258.80;1807810;79;21359;-56
2021/01/30 05:00:17;;;;;;;68.55;44.83;;;;;;;2.42;69.84;92276.15;1807712;79;21101;-55
2021/01/30 05:03:24;;;;;;;81.67;48.08;;;;;;;2.34;70.25;92263.50;1807773;78;21569;-56
2021/01/30 05:05:55;;;;;;;90.28;53.40;;;;;;;2.41;70.82;92254.30;1807713;79;21070;-56
2021/01/30 05:08:54;;;;;;;89.92;54.90;;;;;;;2.54;70.51;92256.23;1807823;79;21073;-56
2021/01/30 05:11:23;;;;;;;88.85;53.92;;;;;;;2.54;70.66;92251.55;1807508;79;22096;-57
2021/01/30 05:14:14;;;;;;;81.05;50.35;;;;;;;2.61;70.73;92258.61;1807796;78;21104;-56
2021/01/30 05:17:06;;;;;;;74.37;47.38;;;;;;;2.69;70.42;92254.39;1807888;78;21520;-56
2021/01/30 05:19:39;;;;;;;74.32;46.35;;;;;;;2.70;70.22;92250.46;1808001;79;21081;-56
2021/01/30 05:22:08;;;;;;;82.60;51.42;;;;;;;2.70;70.36;92255.89;1807966;78;21540;-56
2021/01/30 05:24:36;;;;;;;85.00;52.38;;;;;;;2.69;70.50;92251.67;1807780;79;21195;-57
2021/01/30 05:27:57;;;;;;;67.50;42.85;;;;;;;2.73;70.37;92254.97;1807719;78;21160;-57
2021/01/30 05:30:49;;;;;;;69.62;43.73;;;;;;;2.71;70.35;92258.13;1807743;79;21164;-57
2021/01/30 05:33:38;;;;;;;70.52;42.88;;;;;;;2.69;70.38;92250.31;1807729;78;21125;-57
2021/01/30 05:36:14;;;;;;;76.77;47.95;;;;;;;2.73;70.44;92253.61;1807750;78;21533;-58
2021/01/30 05:38:54;;;;;;;85.00;52.50;;;;;;;2.76;70.58;92270.34;1813500;79;21326;-56
2021/01/30 05:42:02;;;;;;;94.90;51.70;;;;;;;2.81;70.66;92264.28;1813538;79;21084;-56
2021/01/30 05:44:45;;;;;;;159.50;78.65;;;;;;;2.91;70.38;92272.55;1813537;78;21053;-56
2021/01/30 05:47:20;;;;;;;87.70;49.23;;;;;;;2.95;70.34;92269.06;1802995;79;21070;-57
2021/01/30 05:49:57;;;;;;;74.55;44.30;;;;;;;2.97;70.15;92261.97;1813638;78;21137;-57
2021/01/30 05:52:31;;;;;;;59.75;39.27;;;;;;;2.97;70.22;92270.11;1813535;79;21568;-57
2021/01/30 05:55:00;;;;;;;60.95;39.48;;;;;;;2.97;70.07;92267.98;1813634;78;21140;-56
2021/01/30 05:57:28;;;;;;;73.20;46.88;;;;;;;2.96;70.23;92277.34;1813598;79;21089;-57
2021/01/30 05:59:58;;;;;;;240.82;107.72;;;;;;;2.96;69.93;92282.19;1813579;79;21568;-56
2021/01/30 06:02:29;;;;;;;157.85;79.80;;;;;;;2.81;70.01;92280.56;1813677;79;21105;-55
2021/01/30 06:04:58;;;;;;;121.92;66.22;;;;;;;2.64;70.35;92279.41;1813618;78;21190;-56
2021/01/30 06:07:34;;;;;;;164.18;81.10;;;;;;;2.53;70.78;92283.22;1813483;79;21132;-56
2021/01/30 06:10:29;;;;;;;133.55;70.55;;;;;;;2.53;71.07;92279.15;1813644;78;21493;-57
2021/01/30 06:13:15;;;;;;;130.20;67.97;;;;;;;2.58;71.17;92280.65;1813639;79;21124;-57
2021/01/30 06:15:55;;;;;;;135.10;69.53;;;;;;;2.79;71.49;92276.20;1873564;76;22654;-56
2021/01/30 06:18:39;;;;;;;170.53;82.90;;;;;;;2.90;71.22;92291.41;1841219;77;21549;-56
2021/01/30 06:21:21;;;;;;;121.35;62.27;;;;;;;3.00;70.88;92291.50;1838855;76;21357;-57
2021/01/30 06:24:26;;;;;;;121.60;63.42;;;;;;;3.02;70.56;92278.98;1838736;78;21008;-56
2021/01/30 06:26:55;;;;;;;106.67;60.23;;;;;;;3.04;70.86;92278.54;1779423;78;21541;-57
2021/01/30 06:29:41;;;;;;;110.63;60.20;;;;;;;3.15;70.72;92280.90;1841618;77;21550;-57
2021/01/30 06:32:24;;;;;;;108.17;57.35;;;;;;;3.33;70.61;92286.84;1840396;78;21470;-57
2021/01/30 06:35:19;;;;;;;159.35;86.30;;;;;;;3.48;70.05;92286.45;1841690;77;21190;-56
2021/01/30 06:38:04;;;;;;;176.55;101.78;;;;;;;3.61;69.72;92287.58;1815295;78;21101;-59
2021/01/30 06:40:56;;;;;;;125.10;74.15;;;;;;;3.62;69.41;92284.41;1807071;79;21240;-57
2021/01/30 06:43:32;;;;;;;101.72;61.13;;;;;;;3.57;69.15;92291.84;1808533;78;21132;-57
2021/01/30 06:46:09;;;;;;;116.30;70.35;;;;;;;3.48;69.55;92293.24;1808550;78;21041;-57
2021/01/30 06:48:41;;;;;;;120.20;69.82;;;;;;;3.48;69.47;92291.16;1808589;78;21187;-60
2021/01/30 06:51:35;;;;;;;130.95;77.85;;;;;;;3.49;69.43;92294.01;1780141;79;21093;-63
2021/01/30 06:54:28;;;;;;;152.68;83.65;;;;;;;3.45;69.76;92294.77;1808682;79;21165;-58
2021/01/30 06:57:24;;;;;;;139.92;82.33;;;;;;;3.49;69.77;92294.75;1808916;78;21117;-56
2021/01/30 07:00:05;;;;;;;138.55;73.28;;;;;;;3.61;69.82;92299.81;1808692;78;21167;-61
2021/01/30 07:02:39;;;;;;;165.75;90.50;;;;;;;3.77;69.58;92290.66;1771686;79;21215;-57
2021/01/30 07:05:38;;;;;;;151.80;84.72;;;;;;;3.91;69.07;92298.72;1808615;79;21100;-58
2021/01/30 07:08:30;;;;;;;114.57;66.37;;;;;;;3.89;69.13;92295.09;1705550;83;21156;-59
2021/01/30 07:11:40;;;;;;;96.45;55.70;;;;;;;3.89;68.83;92295.72;1802090;79;21517;-58
2021/01/30 07:14:31;;;;;;;98.82;56.25;;;;;;;3.96;68.82;92289.32;1808274;78;21616;-58
2021/01/30 07:17:20;;;;;;;117.70;68.70;;;;;;;4.02;68.62;92280.66;1808633;79;22189;-57
2021/01/30 07:20:44;;;;;;;146.07;78.40;;;;;;;4.00;68.62;92289.89;1808470;79;21085;-58
2021/01/30 07:23:33;;;;;;;144.50;80.38;;;;;;;4.03;68.88;92283.52;1808480;79;21160;-57
2021/01/30 07:26:39;;;;;;;191.00;104.97;;;;;;;4.23;68.41;92279.57;1808239;79;21034;-57
2021/01/30 07:29:14;;;;;;;181.47;104.50;;;;;;;4.21;68.16;92277.19;1807953;78;21089;-57
2021/01/30 07:31:47;;;;;;;168.60;87.78;;;;;;;4.29;68.35;92289.97;1807846;79;22119;-59
2021/01/30 07:34:24;;;;;;;198.02;113.83;;;;;;;4.39;67.92;92298.18;1778913;79;21227;-60
2021/01/30 07:37:07;;;;;;;194.55;106.70;;;;;;;4.30;68.02;92300.23;1807953;78;21165;-59
2021/01/30 07:39:53;;;;;;;220.65;119.15;;;;;;;4.28;68.16;92299.32;1807209;79;21517;-59
2021/01/30 07:42:30;;;;;;;202.22;112.10;;;;;;;4.28;68.30;92291.16;1808082;78;21062;-57
2021/01/30 07:45:22;;;;;;;231.38;131.45;;;;;;;4.31;68.30;92299.77;1807932;79;21346;-56
2021/01/30 07:48:21;;;;;;;221.40;127.25;;;;;;;4.35;68.27;92299.58;1807952;78;21089;-60
2021/01/30 07:50:59;;;;;;;246.30;139.70;;;;;;;4.44;68.29;92300.24;1780737;79;21062;-57
2021/01/30 07:53:33;;;;;;;257.65;139.70;;;;;;;4.48;68.24;92309.59;1807529;78;21053;-57
2021/01/30 07:56:22;;;;;;;162.37;90.62;;;;;;;4.49;68.39;92295.53;1708759;82;21182;-60
2021/01/30 07:59:40;;;;;;;118.90;71.37;;;;;;;4.61;67.89;92288.31;1737186;82;21380;-57
2021/01/30 08:02:48;;;;;;;92.37;55.25;;;;;;;4.69;67.63;92286.11;1747778;80;22216;-57
2021/01/30 08:06:06;;;;;;;99.25;59.20;;;;;;;4.85;67.17;92287.60;1748170;80;21068;-56
2021/01/30 08:09:28;;;;;;;274.77;154.68;;;;;;;5.04;66.79;92299.20;1724614;83;21127;-56
2021/01/30 08:12:28;;;;;;;;;;;;;;;5.28;65.94;92292.39;1751116;80;21050;-58
2021/01/30 08:15:13;;;;;;;28.07;22.15;;;;;;;5.59;64.70;92290.50;1705859;82;21390;-61
2021/01/30 08:18:00;;;;;;;40.40;27.73;;;;;;;5.77;63.69;92294.35;1687360;83;21241;-59
2021/01/30 08:20:45;;;;;;;19.25;14.53;;;;;;;5.89;62.96;92294.65;1663604;85;21507;-59
2021/01/30 08:23:37;;;;;;;20.25;14.18;;;;;;;5.99;62.21;92299.50;1687903;85;21167;-60
2021/01/30 08:26:23;;;;;;;24.50;17.62;;;;;;;6.11;61.46;92301.75;1687821;83;21142;-61
2021/01/30 08:29:13;;;;;;;20.65;16.35;;;;;;;6.17;60.33;92297.13;1687849;83;21345;-57
2021/01/30 08:31:46;;;;;;;20.15;14.20;;;;;;;6.20;60.18;92296.17;1687788;83;21106;-58
2021/01/30 08:34:23;;;;;;;10.63;7.80;;;;;;;6.27;60.17;92297.11;1687992;84;21201;-60
2021/01/30 08:36:57;;;;;;;13.98;9.33;;;;;;;6.31;58.94;92299.03;1687838;83;21079;-58
2021/01/30 08:39:31;;;;;;;20.12;12.18;;;;;;;6.30;59.13;92297.53;1687871;85;21169;-60
2021/01/30 08:42:17;;;;;;;16.90;11.68;;;;;;;6.31;58.98;92301.77;1685384;85;21387;-58
2021/01/30 08:44:50;;;;;;;32.35;17.05;;;;;;;6.29;59.25;92311.79;1687809;85;21566;-59
2021/01/30 08:47:33;;;;;;;26.60;15.65;;;;;;;6.30;59.16;92322.84;1687839;83;21107;-56
2021/01/30 08:50:07;;;;;;;;;;;;;;;6.24;59.02;92321.27;1690309;85;21090;-59
2021/01/30 08:52:51;;;;;;;8.35;7.45;;;;;;;6.14;59.38;92330.20;1687912;85;20258;-58
2021/01/30 08:55:37;;;;;;;10.93;9.33;;;;;;;6.08;59.13;92330.76;1687867;83;21471;-58
2021/01/30 08:58:07;;;;;;;8.28;7.30;;;;;;;6.09;59.38;92331.49;1686574;85;21178;-67
2021/01/30 09:00:51;;;;;;;8.50;7.60;;;;;;;6.15;58.89;92338.53;1688177;85;21225;-66
2021/01/30 09:03:57;;;;;;;13.35;9.83;;;;;;;6.21;58.96;92343.47;1688260;84;21515;-60
2021/01/30 09:06:42;;;;;;;13.88;9.73;;;;;;;6.30;59.17;92343.95;1688301;85;21200;-59
2021/01/30 09:09:14;;;;;;;16.02;11.53;;;;;;;6.46;58.34;92349.59;1683144;85;21289;-59
2021/01/30 09:12:02;;;;;;;18.92;12.85;;;;;;;6.59;58.05;92358.20;1688083;84;21601;-58
2021/01/30 09:14:35;;;;;;;18.23;13.10;;;;;;;6.71;57.94;92352.24;1687846;85;21502;-57
2021/01/30 09:17:20;;;;;;;17.90;12.45;;;;;;;6.79;57.66;92360.14;1685589;85;21613;-59
2021/01/30 09:20:27;;;;;;;11.45;8.78;;;;;;;6.87;57.26;92357.88;1687832;83;21099;-59
2021/01/30 09:23:09;;;;;;;16.60;12.43;;;;;;;6.89;56.56;92354.05;1687827;85;21365;-57
2021/01/30 09:26:10;;;;;;;11.38;8.25;;;;;;;6.91;56.82;92369.97;1687748;83;21166;-59
2021/01/30 09:28:39;;;;;;;16.67;13.03;;;;;;;6.96;56.44;92367.30;1662566;85;21091;-59
2021/01/30 09:31:12;;;;;;;20.12;17.32;;;;;;;6.96;56.28;92363.80;1687988;84;21634;-57
2021/01/30 09:33:49;;;;;;;17.23;13.90;;;;;;;7.01;56.51;92358.40;1688038;85;21499;-59
2021/01/30 09:36:31;;;;;;;13.98;11.03;;;;;;;7.18;56.25;92365.52;1645619;83;21334;-59
2021/01/30 09:38:59;;;;;;;12.33;9.58;;;;;;;7.35;55.43;92358.22;1678620;85;21550;-59
2021/01/30 09:41:34;;;;;;;8.48;7.60;;;;;;;7.36;55.28;92364.45;1687876;85;21178;-60
2021/01/30 09:44:08;;;;;;;19.05;14.38;;;;;;;7.27;55.35;92365.37;1640867;85;21189;-58
2021/01/30 09:46:39;;;;;;;12.85;10.98;;;;;;;7.14;55.52;92366.98;1687638;83;21610;-57
2021/01/30 09:49:12;;;;;;;6.87;6.17;;;;;;;7.03;55.84;92369.59;1687855;84;22850;-58
2021/01/30 09:51:42;;;;;;;11.93;8.95;;;;;;;7.00;55.59;92360.23;1687669;85;21522;-58
2021/01/30 09:54:17;;;;;;;8.85;6.85;;;;;;;6.93;56.23;92359.30;1687746;85;21154;-58
2021/01/30 09:56:46;;;;;;;7.30;6.35;;;;;;;6.92;56.01;92364.01;1687794;83;21173;-59
2021/01/30 09:59:21;;;;;;;6.83;6.17;;;;;;;6.91;55.86;92367.97;1687680;85;21149;-58
2021/01/30 10:01:49;;;;;;;7.55;6.58;;;;;;;6.87;55.79;92374.91;1687427;84;21383;-60
2021/01/30 10:04:26;;;;;;;8.08;7.28;;;;;;;6.80;56.32;92363.77;1687750;83;21098;-57
2021/01/30 10:07:06;;;;;;;15.83;14.28;;;;;;;6.85;56.43;92360.97;1687814;85;21137;-58
2021/01/30 10:09:43;;;;;;;8.20;7.40;;;;;;;7.05;56.57;92358.20;1687775;83;21162;-58
2021/01/30 10:12:14;;;;;;;6.03;5.50;;;;;;;7.38;55.57;92358.61;1687825;85;21090;-57
2021/01/30 10:14:56;;;;;;;5.45;4.95;;;;;;;7.71;54.77;92343.11;1687860;85;21523;-58
2021/01/30 10:17:33;;;;;;;23.87;21.33;;;;;;;7.89;53.93;92360.52;1687760;85;21182;-60
2021/01/30 10:20:11;;;;;;;8.08;6.87;;;;;;;7.93;53.73;92363.17;1687971;84;21114;-59
2021/01/30 10:22:50;;;;;;;10.98;9.83;;;;;;;8.23;53.37;92360.27;1687942;85;21082;-59
2021/01/30 10:25:24;;;;;;;7.58;6.78;;;;;;;8.72;52.92;92352.15;1688075;85;21493;-58
2021/01/30 10:28:11;;;;;;;8.88;7.95;;;;;;;8.99;51.88;92348.89;1687414;85;21387;-58
2021/01/30 10:30:40;;;;;;;5.35;4.72;;;;;;;9.03;51.39;92347.28;1687726;85;21575;-58
2021/01/30 10:33:10;;;;;;;6.80;6.30;;;;;;;8.84;51.00;92351.69;1687781;85;21091;-58
2021/01/30 10:35:48;;;;;;;7.47;6.22;;;;;;;8.52;51.58;92359.93;1687753;83;21095;-59
2021/01/30 10:38:20;;;;;;;9.60;8.70;;;;;;;8.32;51.98;92357.34;1686140;83;21086;-58
2021/01/30 10:41:04;;;;;;;8.60;7.15;;;;;;;8.23;52.41;92351.31;1687799;84;21220;-58
2021/01/30 10:43:38;;;;;;;6.72;6.03;;;;;;;8.36;52.54;92349.64;1687766;85;21086;-58
2021/01/30 10:46:17;;;;;;;5.17;4.67;;;;;;;8.42;52.43;92352.41;1687662;83;21166;-58
2021/01/30 10:48:45;;;;;;;6.47;5.67;;;;;;;8.51;52.22;92350.82;1683016;85;21174;-58
2021/01/30 10:51:23;;;;;;;6.00;5.40;;;;;;;8.66;51.57;92352.12;1687746;85;21094;-58
2021/01/30 10:54:27;;;;;;;8.95;6.17;;;;;;;8.62;51.33;92346.77;1687755;85;21282;-57
2021/01/30 10:57:12;;;;;;;7.50;6.00;;;;;;;8.52;51.51;92345.47;1656919;86;21203;-59
2021/01/30 10:59:48;;;;;;;6.55;5.85;;;;;;;8.42;51.49;92340.81;1654124;85;21187;-59
2021/01/30 11:02:37;;;;;;;4.60;4.20;;;;;;;8.38;51.45;92330.72;1890112;76;22000;-59
2021/01/30 11:05:13;;;;;;;5.60;5.10;;;;;;;8.26;51.52;92327.79;1831131;77;20934;-58
2021/01/30 11:07:49;;;;;;;4.50;4.20;;;;;;;8.23;51.90;92326.03;1819986;78;22411;-59
2021/01/30 11:10:43;;;;;;;5.47;4.58;;;;;;;8.16;51.72;92327.08;1784425;78;21136;-60
2021/01/30 11:13:26;;;;;;;5.00;4.60;;;;;;;8.08;51.99;92330.89;1823175;78;21073;-58
2021/01/30 11:16:14;;;;;;;;;;;;;;;7.97;51.47;92314.42;1825817;78;20923;-59
2021/01/30 11:18:48;;;;;;;7.25;6.03;;;;;;;7.85;52.05;92311.48;1812741;78;20215;-58
2021/01/30 11:21:34;;;;;;;6.35;5.33;;;;;;;7.76;52.25;92313.05;1823228;78;23054;-59
2021/01/30 11:24:35;;;;;;;8.38;5.47;;;;;;;7.75;52.41;92307.45;1782205;80;21504;-59
2021/01/30 11:27:04;;;;;;;5.50;4.90;;;;;;;7.75;52.56;92312.92;1790860;80;21059;-58
2021/01/30 11:29:42;;;;;;;6.50;5.30;;;;;;;7.75;51.58;92320.37;1789166;80;21059;-58
2021/01/30 11:32:13;;;;;;;9.93;7.08;;;;;;;7.66;51.74;92326.05;1823151;78;21122;-58
2021/01/30 11:34:42;;;;;;;4.97;4.58;;;;;;;7.53;52.47;92326.42;1792066;78;22072;-58
2021/01/30 11:37:10;;;;;;;5.42;4.92;;;;;;;7.38;52.34;92325.06;1775946;80;21079;-58
2021/01/30 11:39:40;;;;;;;5.05;4.62;;;;;;;7.30;52.84;92338.42;1790826;80;21562;-59
2021/01/30 11:42:09;;;;;;;6.37;5.75;;;;;;;7.24;53.19;92328.06;1790647;80;21563;-57
2021/01/30 11:44:38;;;;;;;4.08;3.77;;;;;;;7.30;53.30;92331.59;1790824;80;21134;-59
2021/01/30 11:47:07;;;;;;;3.52;3.33;;;;;;;7.45;53.00;92334.19;1790934;80;21441;-61
2021/01/30 11:49:35;;;;;;;4.12;3.83;;;;;;;7.73;52.49;92323.58;1790934;80;21538;-59
2021/01/30 11:52:05;;;;;;;6.35;5.10;;;;;;;8.20;51.64;92325.65;1790919;80;21063;-57
2021/01/30 11:54:33;;;;;;;5.45;4.83;;;;;;;8.69;50.94;92329.23;1790821;80;21095;-58
2021/01/30 11:57:02;;;;;;;4.83;4.35;;;;;;;8.87;50.37;92331.53;1790915;80;21055;-58
2021/01/30 11:59:30;;;;;;;4.80;4.25;;;;;;;8.73;50.37;92335.22;1790867;80;21895;-59
2021/01/30 12:01:59;;;;;;;5.87;4.92;;;;;;;8.52;50.61;92346.23;1790502;80;21178;-58
2021/01/30 12:04:28;;;;;;;5.60;4.55;;;;;;;8.62;51.14;92332.44;1790698;80;21142;-59
2021/01/30 12:06:56;;;;;;;9.70;5.25;;;;;;;9.14;50.50;92326.73;1790717;80;21170;-60
2021/01/30 12:09:26;;;;;;;4.72;3.90;;;;;;;9.76;49.52;92331.78;1790781;80;21063;-61
2021/01/30 12:11:56;;;;;;;5.83;4.87;;;;;;;10.56;47.66;92327.26;1790603;80;21606;-62
2021/01/30 12:14:24;;;;;;;7.83;5.60;;;;;;;11.43;46.11;92327.47;1790050;80;21150;-59